createdAt,value
2023-02-28T15:00:44.651Z,25.94
2023-02-28T15:06:52.217Z,26.18
2023-02-28T15:10:52.256Z,26.24
2023-02-28T15:14:52.522Z,26.25
2023-02-28T15:18:52.169Z,26.25
2023-02-28T15:22:52.114Z,26.20
2023-02-28T15:26:52.041Z,26.04
2023-02-28T15:30:52.019Z,25.93
2023-02-28T15:34:51.980Z,25.86
2023-02-28T15:38:51.981Z,25.77
2023-02-28T15:42:51.889Z,25.73
2023-02-28T15:46:51.913Z,25.72
2023-02-28T15:50:51.850Z,25.62
2023-02-28T15:54:51.844Z,25.60
2023-02-28T15:58:51.781Z,25.53
2023-02-28T16:02:52.233Z,25.51
2023-02-28T16:06:52.154Z,25.56
2023-02-28T16:10:52.288Z,25.58
2023-02-28T16:14:52.471Z,25.59
2023-02-28T16:18:52.581Z,25.60
2023-02-28T16:22:52.753Z,25.57
2023-02-28T16:26:52.908Z,25.53
2023-02-28T16:30:53.188Z,25.50
2023-02-28T16:34:53.290Z,25.47
2023-02-28T16:38:53.478Z,25.43
2023-02-28T16:42:53.718Z,25.42
2023-02-28T16:46:53.954Z,25.40
2023-02-28T16:50:54.140Z,25.38
2023-02-28T16:54:54.121Z,25.35
2023-02-28T16:58:54.102Z,25.33
2023-02-28T17:02:54.164Z,25.31
2023-02-28T17:06:54.061Z,25.28
2023-02-28T17:10:53.984Z,25.25
2023-02-28T17:14:53.938Z,25.22
2023-02-28T17:18:53.890Z,25.19
2023-02-28T17:22:53.897Z,25.17
2023-02-28T17:26:53.881Z,25.14
2023-02-28T17:30:53.850Z,25.12
2023-02-28T17:34:53.759Z,25.10
2023-02-28T17:38:53.758Z,25.07
2023-02-28T17:42:53.756Z,25.04
2023-02-28T17:46:53.771Z,25.01
2023-02-28T17:50:53.611Z,24.98
2023-02-28T17:54:53.605Z,24.97
2023-02-28T17:58:53.570Z,24.94
2023-02-28T18:02:53.593Z,24.91
2023-02-28T18:06:53.528Z,24.88
2023-02-28T18:10:53.579Z,24.85
2023-02-28T18:14:53.697Z,24.82
2023-02-28T18:18:53.829Z,24.80
2023-02-28T18:22:53.896Z,24.78
2023-02-28T18:26:53.985Z,24.75
2023-02-28T18:30:54.127Z,24.73
2023-02-28T18:34:54.210Z,24.71
2023-02-28T18:38:54.401Z,24.69
2023-02-28T18:42:54.530Z,24.66
2023-02-28T18:46:54.690Z,24.62
2023-02-28T18:50:54.904Z,24.62
2023-02-28T18:54:54.881Z,24.61
2023-02-28T18:58:54.858Z,24.59
2023-02-28T19:02:54.836Z,24.60
2023-02-28T19:06:54.772Z,24.58
2023-02-28T19:10:54.755Z,24.55
2023-02-28T19:14:54.714Z,24.53
2023-02-28T19:18:54.689Z,24.49
2023-02-28T19:22:54.666Z,24.42
2023-02-28T19:26:54.588Z,24.38
2023-02-28T19:30:54.569Z,24.35
2023-02-28T19:34:54.552Z,24.34
2023-02-28T19:38:54.503Z,24.32
2023-02-28T19:42:54.449Z,24.30
2023-02-28T19:46:54.430Z,24.28
2023-02-28T19:50:54.404Z,24.25
2023-02-28T19:54:54.335Z,24.24
2023-02-28T19:58:54.290Z,24.22
2023-02-28T20:02:54.275Z,24.21
2023-02-28T20:06:54.260Z,24.18
2023-02-28T20:10:54.293Z,24.17
2023-02-28T20:14:54.207Z,24.16
2023-02-28T20:18:54.158Z,24.15
2023-02-28T20:22:54.128Z,24.12
2023-02-28T20:26:54.145Z,24.12
2023-02-28T20:30:54.155Z,24.10
2023-02-28T20:34:54.138Z,24.09
2023-02-28T20:38:54.115Z,24.08
2023-02-28T20:42:54.157Z,24.06
2023-02-28T20:46:54.155Z,24.05
2023-02-28T20:50:54.146Z,24.04
2023-02-28T20:54:54.126Z,24.02
2023-02-28T20:58:54.197Z,24.02
2023-02-28T21:02:54.276Z,24.01
2023-02-28T21:06:54.253Z,24.00
2023-02-28T21:10:54.276Z,23.99
2023-02-28T21:14:54.344Z,23.98
2023-02-28T21:18:54.348Z,23.97
2023-02-28T21:22:54.356Z,23.95
2023-02-28T21:26:54.406Z,23.94
2023-02-28T21:30:54.491Z,23.92
2023-02-28T21:34:54.543Z,23.91
2023-02-28T21:38:54.564Z,23.90
2023-02-28T21:42:54.627Z,23.89
2023-02-28T21:46:54.825Z,23.88
2023-02-28T21:50:54.766Z,23.88
2023-02-28T21:54:54.838Z,23.87
2023-02-28T21:58:54.901Z,23.85
2023-02-28T22:02:55.076Z,23.85
2023-02-28T22:06:55.063Z,23.83
2023-02-28T22:10:55.174Z,23.82
2023-02-28T22:14:55.295Z,23.81
2023-02-28T22:18:55.368Z,23.80
2023-02-28T22:22:55.474Z,23.80
2023-02-28T22:26:55.564Z,23.78
2023-02-28T22:30:55.739Z,23.77
2023-02-28T22:34:55.814Z,23.76
2023-02-28T22:38:55.937Z,23.74
2023-02-28T22:42:56.044Z,23.73
2023-02-28T22:46:56.238Z,23.72
2023-02-28T22:50:56.310Z,23.71
2023-02-28T22:54:56.464Z,23.70
2023-02-28T22:58:56.568Z,23.69
2023-02-28T23:02:56.722Z,23.68
2023-02-28T23:06:56.857Z,23.67
2023-02-28T23:10:57.020Z,23.66
2023-02-28T23:14:57.152Z,23.65
2023-02-28T23:18:57.240Z,23.64
2023-02-28T23:22:57.414Z,23.63
2023-02-28T23:26:57.496Z,23.62
2023-02-28T23:30:57.674Z,23.62
2023-02-28T23:34:57.808Z,23.60
2023-02-28T23:38:57.932Z,23.59
2023-02-28T23:42:58.056Z,23.58
2023-02-28T23:46:58.190Z,23.57
2023-02-28T23:50:58.316Z,23.57
2023-02-28T23:54:58.423Z,23.56
2023-02-28T23:58:58.548Z,23.56
